Portada
METAR-TAF:

METAR-TAF

Aeropuertos :

Aeropuerto de Pula

Pula, Croacia

latitud: 44-54N, longitud: 013-55E, altitud: 63 m

Observación

El informe se hizo hace 23 minutos, a las 03:00 UTC
Viento 5 kt del norte-noreste
Temperatura 15°C
Humedad 51%
Presión 1016 hPa
Visibilidad 10 km o más
Escasas nubes a una altura de 5500 ft

METAR: LDPL 010300Z 02005KT 9999 FEW055 15/05 Q1016 NOSIG

Hora: 05:23 (03:23 UTC)

Pronóstico

El informe se hizo hace 3 horas y 58 minutos, a las 23:25 UTC
Pronóstico válido del 01 a las 00 UTC al 02 a las 00 UTC
Viento 8 kt del este-noreste
Visibilidad 10 km o más
sin nubes por debajo de 1500 m y sin presencia de cumulonimbus.

TAF: LDPL 312325Z 0100/0200 06008KT CAVOK TX23/0113Z TN14/0104Z

Observaciones y pronósticos meteorológicos de más de 4000 aeropuertos (mensajes METAR y TAF).

Los puntos amarillos y rojos representan las estaciones disponibles.

Ponga el ratón en el punto deseado para ver el nombre de la estación.

Haga clic para ver las observaciones y los pronósticos meteorológicos.

Para cambiar el mapa : haga clic en los botones verdes con una cruz de color negro para hacer un zoom, en el botón verde con un guión para alejar o en las flechas verdes para mapas adyacentes.


METAR-TAF: